Time,TemperatureF,DewpointF,PressureIn,WindDirection,WindDirectionDegrees,WindSpeedMPH,WindSpeedGustMPH,Humidity,HourlyPrecipIn,Conditions,Clouds,dailyrainin,SoftwareType,DateUTC
2013-02-22 00:00:00,20.8,16.8,-100.00,North,-999,-999.0,-999.0,88,-99.99,,,-99.99,,2013-02-22 05:00:00,
2013-02-22 00:05:00,20.8,16.4,-100.00,North,-999,-999.0,-999.0,87,-99.99,,,-99.99,,2013-02-22 05:05:00,
2013-02-22 00:07:00,20.8,16.9,-100.00,North,-999,-999.0,-999.0,89,-99.99,,,-99.99,,2013-02-22 05:07:00,
2013-02-22 00:12:00,20.7,16.2,-100.00,North,-999,-999.0,-999.0,87,-99.99,,,-99.99,,2013-02-22 05:12:00,
2013-02-22 00:17:00,20.7,16.9,-100.00,North,-999,-999.0,-999.0,89,-99.99,,,-99.99,,2013-02-22 05:17:00,
2013-02-22 00:22:00,20.7,16.7,-100.00,North,-999,-999.0,-999.0,88,-99.99,,,-99.99,,2013-02-22 05:22:00,
2013-02-22 00:27:00,20.7,16.8,-100.00,North,-999,-999.0,-999.0,89,-99.99,,,-99.99,,2013-02-22 05:27:00,
2013-02-22 00:32:00,20.5,16.9,-100.00,North,-999,-999.0,-999.0,90,-99.99,,,-99.99,,2013-02-22 05:32:00,
2013-02-22 00:37:00,20.5,17.6,-100.00,North,-999,-999.0,-999.0,91,-99.99,,,-99.99,,2013-02-22 05:37:00,
2013-02-22 00:42:00,20.5,17.4,-100.00,North,-999,-999.0,-999.0,91,-99.99,,,-99.99,,2013-02-22 05:42:00,
2013-02-22 00:47:00,20.5,17.6,-100.00,North,-999,-999.0,-999.0,92,-99.99,,,-99.99,,2013-02-22 05:47:00,
2013-02-22 00:52:00,20.7,17.8,-100.00,North,-999,-999.0,-999.0,92,-99.99,,,-99.99,,2013-02-22 05:52:00,
2013-02-22 00:57:00,20.7,17.6,-100.00,North,-999,-999.0,-999.0,91,-99.99,,,-99.99,,2013-02-22 05:57:00,
2013-02-22 01:02:00,20.8,17.6,-100.00,North,-999,-999.0,-999.0,91,-99.99,,,-99.99,,2013-02-22 06:02:00,
2013-02-22 01:07:00,20.8,17.1,-100.00,North,-999,-999.0,-999.0,89,-99.99,,,-99.99,,2013-02-22 06:07:00,
2013-02-22 01:12:00,20.8,17.4,-100.00,North,-999,-999.0,-999.0,90,-99.99,,,-99.99,,2013-02-22 06:12:00,
2013-02-22 01:17:00,20.7,17.2,-100.00,North,-999,-999.0,-999.0,90,-99.99,,,-99.99,,2013-02-22 06:17:00,
2013-02-22 01:22:00,20.7,17.8,-100.00,North,-999,-999.0,-999.0,92,-99.99,,,-99.99,,2013-02-22 06:22:00,
2013-02-22 01:27:00,20.5,18.0,-100.00,North,-999,-999.0,-999.0,93,-99.99,,,-99.99,,2013-02-22 06:27:00,
2013-02-22 01:32:00,20.7,18.6,-100.00,North,-999,-999.0,-999.0,94,-99.99,,,-99.99,,2013-02-22 06:32:00,
2013-02-22 01:37:00,20.7,18.0,-100.00,North,-999,-999.0,-999.0,92,-99.99,,,-99.99,,2013-02-22 06:37:00,
2013-02-22 01:42:00,20.7,18.1,-100.00,North,-999,-999.0,-999.0,92,-99.99,,,-99.99,,2013-02-22 06:42:00,
2013-02-22 01:47:00,21.0,18.3,-100.00,North,-999,-999.0,-999.0,92,-99.99,,,-99.99,,2013-02-22 06:47:00,
2013-02-22 01:52:00,21.2,18.4,-100.00,North,-999,-999.0,-999.0,92,-99.99,,,-99.99,,2013-02-22 06:52:00,
2013-02-22 01:57:00,21.4,18.0,-100.00,North,-999,-999.0,-999.0,90,-99.99,,,-99.99,,2013-02-22 06:57:00,
2013-02-22 02:02:00,21.2,17.6,-100.00,North,-999,-999.0,-999.0,89,-99.99,,,-99.99,,2013-02-22 07:02:00,
2013-02-22 02:07:00,21.4,18.0,-100.00,North,-999,-999.0,-999.0,90,-99.99,,,-99.99,,2013-02-22 07:07:00,
2013-02-22 02:12:00,21.2,17.7,-100.00,North,-999,-999.0,-999.0,90,-99.99,,,-99.99,,2013-02-22 07:12:00,
2013-02-22 02:20:00,21.4,17.6,-100.00,North,-999,-999.0,-999.0,89,-99.99,,,-99.99,,2013-02-22 07:20:00,
2013-02-22 02:25:00,21.6,17.5,-100.00,North,-999,-999.0,-999.0,88,-99.99,,,-99.99,,2013-02-22 07:25:00,
2013-02-22 02:30:00,21.4,17.2,-100.00,North,-999,-999.0,-999.0,88,-99.99,,,-99.99,,2013-02-22 07:30:00,
2013-02-22 02:35:00,21.4,17.6,-100.00,North,-999,-999.0,-999.0,89,-99.99,,,-99.99,,2013-02-22 07:35:00,
2013-02-22 02:40:00,21.4,17.5,-100.00,North,-999,-999.0,-999.0,89,-99.99,,,-99.99,,2013-02-22 07:40:00,
2013-02-22 02:45:00,21.4,17.5,-100.00,North,-999,-999.0,-999.0,89,-99.99,,,-99.99,,2013-02-22 07:45:00,
2013-02-22 02:50:00,21.4,17.6,-100.00,North,-999,-999.0,-999.0,89,-99.99,,,-99.99,,2013-02-22 07:50:00,
2013-02-22 02:55:00,21.6,17.8,-100.00,North,-999,-999.0,-999.0,89,-99.99,,,-99.99,,2013-02-22 07:55:00,
2013-02-22 03:00:00,21.4,17.5,-100.00,North,-999,-999.0,-999.0,89,-99.99,,,-99.99,,2013-02-22 08:00:00,
2013-02-22 03:05:00,21.4,17.7,-100.00,North,-999,-999.0,-999.0,89,-99.99,,,-99.99,,2013-02-22 08:05:00,
2013-02-22 03:10:00,21.4,17.7,-100.00,North,-999,-999.0,-999.0,89,-99.99,,,-99.99,,2013-02-22 08:10:00,
2013-02-22 03:15:00,21.2,17.7,-100.00,North,-999,-999.0,-999.0,90,-99.99,,,-99.99,,2013-02-22 08:15:00,
2013-02-22 03:20:00,21.0,18.0,-100.00,North,-999,-999.0,-999.0,91,-99.99,,,-99.99,,2013-02-22 08:20:00,
2013-02-22 03:25:00,21.0,17.9,-100.00,North,-999,-999.0,-999.0,91,-99.99,,,-99.99,,2013-02-22 08:25:00,
2013-02-22 03:30:00,21.0,18.2,-100.00,North,-999,-999.0,-999.0,92,-99.99,,,-99.99,,2013-02-22 08:30:00,
2013-02-22 03:35:00,20.8,18.5,-100.00,North,-999,-999.0,-999.0,93,-99.99,,,-99.99,,2013-02-22 08:35:00,
2013-02-22 03:40:00,20.8,19.0,-100.00,North,-999,-999.0,-999.0,95,-99.99,,,-99.99,,2013-02-22 08:40:00,
2013-02-22 03:45:00,20.8,18.9,-100.00,North,-999,-999.0,-999.0,94,-99.99,,,-99.99,,2013-02-22 08:45:00,
2013-02-22 03:50:00,20.7,18.5,-100.00,North,-999,-999.0,-999.0,94,-99.99,,,-99.99,,2013-02-22 08:50:00,
2013-02-22 03:55:00,20.7,19.4,-100.00,North,-999,-999.0,-999.0,96,-99.99,,,-99.99,,2013-02-22 08:55:00,
2013-02-22 04:00:00,20.7,19.0,-100.00,North,-999,-999.0,-999.0,95,-99.99,,,-99.99,,2013-02-22 09:00:00,
2013-02-22 04:05:00,20.5,19.8,-100.00,North,-999,-999.0,-999.0,98,-99.99,,,-99.99,,2013-02-22 09:05:00,
2013-02-22 04:10:00,20.7,19.6,-100.00,North,-999,-999.0,-999.0,97,-99.99,,,-99.99,,2013-02-22 09:10:00,
2013-02-22 04:15:00,20.7,19.6,-100.00,North,-999,-999.0,-999.0,97,-99.99,,,-99.99,,2013-02-22 09:15:00,
2013-02-22 04:20:00,20.7,19.5,-100.00,North,-999,-999.0,-999.0,96,-99.99,,,-99.99,,2013-02-22 09:20:00,
2013-02-22 04:25:00,20.5,19.5,-100.00,North,-999,-999.0,-999.0,97,-99.99,,,-99.99,,2013-02-22 09:25:00,
2013-02-22 04:30:00,20.3,19.4,-100.00,North,-999,-999.0,-999.0,97,-99.99,,,-99.99,,2013-02-22 09:30:00,
2013-02-22 04:35:00,20.3,19.6,-100.00,North,-999,-999.0,-999.0,98,-99.99,,,-99.99,,2013-02-22 09:35:00,
2013-02-22 04:43:00,20.1,20.0,-100.00,North,-999,-999.0,-999.0,99,-99.99,,,-99.99,,2013-02-22 09:43:00,
2013-02-22 04:48:00,20.1,20.1,-100.00,North,-999,-999.0,-999.0,99,-99.99,,,-99.99,,2013-02-22 09:48:00,
2013-02-22 04:53:00,20.1,20.1,-100.00,North,-999,-999.0,-999.0,99,-99.99,,,-99.99,,2013-02-22 09:53:00,
2013-02-22 04:58:00,19.9,19.9,-100.00,North,-999,-999.0,-999.0,99,-99.99,,,-99.99,,2013-02-22 09:58:00,
2013-02-22 05:03:00,19.8,19.7,-100.00,North,-999,-999.0,-999.0,99,-99.99,,,-99.99,,2013-02-22 10:03:00,
2013-02-22 05:08:00,19.8,19.7,-100.00,North,-999,-999.0,-999.0,99,-99.99,,,-99.99,,2013-02-22 10:08:00,
2013-02-22 05:13:00,19.6,19.5,-100.00,North,-999,-999.0,-999.0,99,-99.99,,,-99.99,,2013-02-22 10:13:00,
2013-02-22 05:18:00,19.6,19.5,-100.00,North,-999,-999.0,-999.0,99,-99.99,,,-99.99,,2013-02-22 10:18:00,
2013-02-22 05:23:00,19.4,19.4,-100.00,North,-999,-999.0,-999.0,99,-99.99,,,-99.99,,2013-02-22 10:23:00,
2013-02-22 05:28:00,19.2,19.2,-100.00,North,-999,-999.0,-999.0,99,-99.99,,,-99.99,,2013-02-22 10:28:00,
2013-02-22 05:33:00,19.2,19.2,-100.00,North,-999,-999.0,-999.0,99,-99.99,,,-99.99,,2013-02-22 10:33:00,
2013-02-22 05:38:00,19.0,19.0,-100.00,North,-999,-999.0,-999.0,99,-99.99,,,-99.99,,2013-02-22 10:38:00,
2013-02-22 05:43:00,19.0,19.0,-100.00,North,-999,-999.0,-999.0,99,-99.99,,,-99.99,,2013-02-22 10:43:00,
2013-02-22 05:48:00,19.0,19.0,-100.00,North,-999,-999.0,-999.0,99,-99.99,,,-99.99,,2013-02-22 10:48:00,
2013-02-22 05:53:00,19.0,19.0,-100.00,North,-999,-999.0,-999.0,99,-99.99,,,-99.99,,2013-02-22 10:53:00,
2013-02-22 05:58:00,19.0,19.0,-100.00,North,-999,-999.0,-999.0,99,-99.99,,,-99.99,,2013-02-22 10:58:00,
2013-02-22 06:03:00,19.2,19.2,-100.00,North,-999,-999.0,-999.0,99,-99.99,,,-99.99,,2013-02-22 11:03:00,
2013-02-22 06:08:00,19.2,19.2,-100.00,North,-999,-999.0,-999.0,99,-99.99,,,-99.99,,2013-02-22 11:08:00,
2013-02-22 06:13:00,19.2,19.2,-100.00,North,-999,-999.0,-999.0,99,-99.99,,,-99.99,,2013-02-22 11:13:00,
2013-02-22 06:18:00,19.0,19.0,-100.00,North,-999,-999.0,-999.0,99,-99.99,,,-99.99,,2013-02-22 11:18:00,
2013-02-22 06:23:00,19.0,19.0,-100.00,North,-999,-999.0,-999.0,99,-99.99,,,-99.99,,2013-02-22 11:23:00,
2013-02-22 06:28:00,18.9,18.8,-100.00,North,-999,-999.0,-999.0,99,-99.99,,,-99.99,,2013-02-22 11:28:00,
2013-02-22 06:33:00,18.7,18.6,-100.00,North,-999,-999.0,-999.0,99,-99.99,,,-99.99,,2013-02-22 11:33:00,
2013-02-22 06:38:00,18.7,18.6,-100.00,North,-999,-999.0,-999.0,99,-99.99,,,-99.99,,2013-02-22 11:38:00,
2013-02-22 06:43:00,18.7,18.6,-100.00,North,-999,-999.0,-999.0,99,-99.99,,,-99.99,,2013-02-22 11:43:00,
2013-02-22 06:48:00,18.7,18.6,-100.00,North,-999,-999.0,-999.0,99,-99.99,,,-99.99,,2013-02-22 11:48:00,
2013-02-22 06:53:00,18.9,18.8,-100.00,North,-999,-999.0,-999.0,99,-99.99,,,-99.99,,2013-02-22 11:53:00,
2013-02-22 06:58:00,18.9,18.8,-100.00,North,-999,-999.0,-999.0,99,-99.99,,,-99.99,,2013-02-22 11:58:00,
2013-02-22 07:03:00,18.7,18.6,-100.00,North,-999,-999.0,-999.0,99,-99.99,,,-99.99,,2013-02-22 12:03:00,
2013-02-22 07:08:00,18.7,18.6,-100.00,North,-999,-999.0,-999.0,99,-99.99,,,-99.99,,2013-02-22 12:08:00,
2013-02-22 07:13:00,18.7,18.6,-100.00,North,-999,-999.0,-999.0,99,-99.99,,,-99.99,,2013-02-22 12:13:00,
2013-02-22 07:18:00,18.9,18.8,-100.00,North,-999,-999.0,-999.0,99,-99.99,,,-99.99,,2013-02-22 12:18:00,
2013-02-22 07:23:00,19.0,19.0,-100.00,North,-999,-999.0,-999.0,99,-99.99,,,-99.99,,2013-02-22 12:23:00,
2013-02-22 07:28:00,19.4,19.4,-100.00,North,-999,-999.0,-999.0,99,-99.99,,,-99.99,,2013-02-22 12:28:00,
2013-02-22 07:35:00,19.8,19.7,-100.00,North,-999,-999.0,-999.0,99,-99.99,,,-99.99,,2013-02-22 12:35:00,
2013-02-22 07:40:00,20.3,20.3,-100.00,North,-999,-999.0,-999.0,99,-99.99,,,-99.99,,2013-02-22 12:40:00,
2013-02-22 07:45:00,20.7,20.6,-100.00,North,-999,-999.0,-999.0,99,-99.99,,,-99.99,,2013-02-22 12:45:00,
2013-02-22 07:50:00,21.0,21.0,-100.00,North,-999,-999.0,-999.0,99,-99.99,,,-99.99,,2013-02-22 12:50:00,
2013-02-22 07:55:00,21.2,21.2,-100.00,North,-999,-999.0,-999.0,99,-99.99,,,-99.99,,2013-02-22 12:55:00,
2013-02-22 08:00:00,21.7,20.8,-100.00,North,-999,-999.0,-999.0,97,-99.99,,,-99.99,,2013-02-22 13:00:00,
2013-02-22 08:05:00,22.3,20.4,-100.00,North,-999,-999.0,-999.0,94,-99.99,,,-99.99,,2013-02-22 13:05:00,
2013-02-22 08:10:00,22.6,19.8,-100.00,North,-999,-999.0,-999.0,92,-99.99,,,-99.99,,2013-02-22 13:10:00,
2013-02-22 08:15:00,23.2,20.0,-100.00,North,-999,-999.0,-999.0,91,-99.99,,,-99.99,,2013-02-22 13:15:00,
2013-02-22 08:20:00,23.5,19.8,-100.00,North,-999,-999.0,-999.0,89,-99.99,,,-99.99,,2013-02-22 13:20:00,
2013-02-22 08:25:00,24.1,18.8,-100.00,North,-999,-999.0,-999.0,85,-99.99,,,-99.99,,2013-02-22 13:25:00,
2013-02-22 08:30:00,24.6,18.3,-100.00,North,-999,-999.0,-999.0,82,-99.99,,,-99.99,,2013-02-22 13:30:00,
2013-02-22 08:35:00,25.0,18.6,-100.00,North,-999,-999.0,-999.0,82,-99.99,,,-99.99,,2013-02-22 13:35:00,
2013-02-22 08:40:00,25.3,18.9,-100.00,North,-999,-999.0,-999.0,82,-99.99,,,-99.99,,2013-02-22 13:40:00,
2013-02-22 08:45:00,25.9,18.0,-100.00,North,-999,-999.0,-999.0,78,-99.99,,,-99.99,,2013-02-22 13:45:00,
2013-02-22 08:50:00,26.2,17.9,-100.00,North,-999,-999.0,-999.0,76,-99.99,,,-99.99,,2013-02-22 13:50:00,
2013-02-22 08:55:00,26.4,18.0,-100.00,North,-999,-999.0,-999.0,76,-99.99,,,-99.99,,2013-02-22 13:55:00,
2013-02-22 09:00:00,26.6,18.2,-100.00,North,-999,-999.0,-999.0,76,-99.99,,,-99.99,,2013-02-22 14:00:00,
2013-02-22 09:05:00,26.8,17.7,-100.00,North,-999,-999.0,-999.0,74,-99.99,,,-99.99,,2013-02-22 14:05:00,
2013-02-22 09:10:00,27.3,17.4,-100.00,North,-999,-999.0,-999.0,72,-99.99,,,-99.99,,2013-02-22 14:10:00,
2013-02-22 09:15:00,27.5,17.6,-100.00,North,-999,-999.0,-999.0,72,-99.99,,,-99.99,,2013-02-22 14:15:00,
2013-02-22 09:20:00,27.9,17.2,-100.00,North,-999,-999.0,-999.0,70,-99.99,,,-99.99,,2013-02-22 14:20:00,
2013-02-22 09:25:00,28.2,17.5,-100.00,North,-999,-999.0,-999.0,70,-99.99,,,-99.99,,2013-02-22 14:25:00,
2013-02-22 09:30:00,28.8,16.8,-100.00,North,-999,-999.0,-999.0,66,-99.99,,,-99.99,,2013-02-22 14:30:00,
2013-02-22 09:35:00,28.9,15.9,-100.00,North,-999,-999.0,-999.0,63,-99.99,,,-99.99,,2013-02-22 14:35:00,
2013-02-22 09:40:00,29.3,16.4,-100.00,North,-999,-999.0,-999.0,64,-99.99,,,-99.99,,2013-02-22 14:40:00,
2013-02-22 09:45:00,29.7,16.1,-100.00,North,-999,-999.0,-999.0,62,-99.99,,,-99.99,,2013-02-22 14:45:00,
2013-02-22 09:53:00,30.4,15.8,-100.00,North,-999,-999.0,-999.0,59,-99.99,,,-99.99,,2013-02-22 14:53:00,
2013-02-22 09:58:00,30.7,15.5,-100.00,North,-999,-999.0,-999.0,57,-99.99,,,-99.99,,2013-02-22 14:58:00,
2013-02-22 10:03:00,31.5,15.9,-100.00,North,-999,-999.0,-999.0,56,-99.99,,,-99.99,,2013-02-22 15:03:00,
2013-02-22 10:08:00,31.8,16.4,-100.00,North,-999,-999.0,-999.0,57,-99.99,,,-99.99,,2013-02-22 15:08:00,
2013-02-22 10:13:00,32.4,16.5,-100.00,North,-999,-999.0,-999.0,55,-99.99,,,-99.99,,2013-02-22 15:13:00,
2013-02-22 10:18:00,33.1,16.5,-100.00,North,-999,-999.0,-999.0,54,-99.99,,,-99.99,,2013-02-22 15:18:00,
2013-02-22 10:23:00,33.4,16.4,-100.00,North,-999,-999.0,-999.0,52,-99.99,,,-99.99,,2013-02-22 15:23:00,
2013-02-22 10:28:00,33.4,16.1,-100.00,North,-999,-999.0,-999.0,51,-99.99,,,-99.99,,2013-02-22 15:28:00,
2013-02-22 10:33:00,33.6,16.6,-100.00,North,-999,-999.0,-999.0,52,-99.99,,,-99.99,,2013-02-22 15:33:00,
2013-02-22 10:38:00,33.8,16.2,-100.00,North,-999,-999.0,-999.0,51,-99.99,,,-99.99,,2013-02-22 15:38:00,
2013-02-22 10:43:00,34.5,-99.9,-100.00,North,-999,-999.0,-999.0,49,-99.99,,,-99.99,,2013-02-22 15:43:00,
2013-02-22 10:48:00,35.1,-99.9,-100.00,North,-999,-999.0,-999.0,48,-99.99,,,-99.99,,2013-02-22 15:48:00,
2013-02-22 10:53:00,35.8,-99.9,-100.00,North,-999,-999.0,-999.0,48,-99.99,,,-99.99,,2013-02-22 15:53:00,
2013-02-22 10:58:00,35.8,-99.9,-100.00,North,-999,-999.0,-999.0,44,-99.99,,,-99.99,,2013-02-22 15:58:00,
2013-02-22 11:03:00,35.8,-99.9,-100.00,North,-999,-999.0,-999.0,45,-99.99,,,-99.99,,2013-02-22 16:03:00,
2013-02-22 11:08:00,35.6,-99.9,-100.00,North,-999,-999.0,-999.0,44,-99.99,,,-99.99,,2013-02-22 16:08:00,
2013-02-22 11:13:00,35.8,-99.9,-100.00,North,-999,-999.0,-999.0,45,-99.99,,,-99.99,,2013-02-22 16:13:00,
2013-02-22 11:18:00,36.0,-99.9,-100.00,North,-999,-999.0,-999.0,47,-99.99,,,-99.99,,2013-02-22 16:18:00,
2013-02-22 11:23:00,36.7,-99.9,-100.00,North,-999,-999.0,-999.0,44,-99.99,,,-99.99,,2013-02-22 16:23:00,
2013-02-22 11:28:00,37.0,-99.9,-100.00,North,-999,-999.0,-999.0,43,-99.99,,,-99.99,,2013-02-22 16:28:00,
2013-02-22 11:33:00,37.4,-99.9,-100.00,North,-999,-999.0,-999.0,43,-99.99,,,-99.99,,2013-02-22 16:33:00,
2013-02-22 11:38:00,37.8,-99.9,-100.00,North,-999,-999.0,-999.0,42,-99.99,,,-99.99,,2013-02-22 16:38:00,
2013-02-22 11:43:00,38.1,-99.9,-100.00,North,-999,-999.0,-999.0,41,-99.99,,,-99.99,,2013-02-22 16:43:00,
2013-02-22 11:48:00,38.3,-99.9,-100.00,North,-999,-999.0,-999.0,43,-99.99,,,-99.99,,2013-02-22 16:48:00,
2013-02-22 11:53:00,38.3,-99.9,-100.00,North,-999,-999.0,-999.0,42,-99.99,,,-99.99,,2013-02-22 16:53:00,
2013-02-22 11:58:00,38.1,-99.9,-100.00,North,-999,-999.0,-999.0,41,-99.99,,,-99.99,,2013-02-22 16:58:00,
2013-02-22 12:03:00,37.9,-99.9,-100.00,North,-999,-999.0,-999.0,41,-99.99,,,-99.99,,2013-02-22 17:03:00,
2013-02-22 12:08:00,37.9,-99.9,-100.00,North,-999,-999.0,-999.0,40,-99.99,,,-99.99,,2013-02-22 17:08:00,
2013-02-22 12:13:00,38.3,-99.9,-100.00,North,-999,-999.0,-999.0,40,-99.99,,,-99.99,,2013-02-22 17:13:00,
2013-02-22 12:18:00,37.9,-99.9,-100.00,North,-999,-999.0,-999.0,41,-99.99,,,-99.99,,2013-02-22 17:18:00,
2013-02-22 12:23:00,37.9,-99.9,-100.00,North,-999,-999.0,-999.0,41,-99.99,,,-99.99,,2013-02-22 17:23:00,
2013-02-22 12:28:00,37.9,-99.9,-100.00,North,-999,-999.0,-999.0,42,-99.99,,,-99.99,,2013-02-22 17:28:00,
2013-02-22 12:33:00,38.1,-99.9,-100.00,North,-999,-999.0,-999.0,42,-99.99,,,-99.99,,2013-02-22 17:33:00,
2013-02-22 12:38:00,37.9,-99.9,-100.00,North,-999,-999.0,-999.0,42,-99.99,,,-99.99,,2013-02-22 17:38:00,
2013-02-22 12:43:00,37.9,-99.9,-100.00,North,-999,-999.0,-999.0,42,-99.99,,,-99.99,,2013-02-22 17:43:00,
2013-02-22 12:48:00,37.9,-99.9,-100.00,North,-999,-999.0,-999.0,41,-99.99,,,-99.99,,2013-02-22 17:48:00,
2013-02-22 12:53:00,38.1,-99.9,-100.00,North,-999,-999.0,-999.0,41,-99.99,,,-99.99,,2013-02-22 17:53:00,
2013-02-22 12:58:00,38.1,-99.9,-100.00,North,-999,-999.0,-999.0,41,-99.99,,,-99.99,,2013-02-22 17:58:00,
2013-02-22 13:03:00,38.7,-99.9,-100.00,North,-999,-999.0,-999.0,41,-99.99,,,-99.99,,2013-02-22 18:03:00,
2013-02-22 13:08:00,39.2,-99.9,-100.00,North,-999,-999.0,-999.0,39,-99.99,,,-99.99,,2013-02-22 18:08:00,
2013-02-22 13:13:00,40.3,-99.9,-100.00,North,-999,-999.0,-999.0,39,-99.99,,,-99.99,,2013-02-22 18:13:00,
2013-02-22 13:18:00,40.5,-99.9,-100.00,North,-999,-999.0,-999.0,37,-99.99,,,-99.99,,2013-02-22 18:18:00,
2013-02-22 13:23:00,40.1,-99.9,-100.00,North,-999,-999.0,-999.0,38,-99.99,,,-99.99,,2013-02-22 18:23:00,
2013-02-22 13:28:00,40.1,-99.9,-100.00,North,-999,-999.0,-999.0,38,-99.99,,,-99.99,,2013-02-22 18:28:00,
2013-02-22 13:33:00,39.7,-99.9,-100.00,North,-999,-999.0,-999.0,39,-99.99,,,-99.99,,2013-02-22 18:33:00,
2013-02-22 13:38:00,38.8,-99.9,-100.00,North,-999,-999.0,-999.0,38,-99.99,,,-99.99,,2013-02-22 18:38:00,
2013-02-22 13:43:00,38.8,-99.9,-100.00,North,-999,-999.0,-999.0,39,-99.99,,,-99.99,,2013-02-22 18:43:00,
2013-02-22 13:48:00,38.8,-99.9,-100.00,North,-999,-999.0,-999.0,40,-99.99,,,-99.99,,2013-02-22 18:48:00,
2013-02-22 13:53:00,38.5,-99.9,-100.00,North,-999,-999.0,-999.0,38,-99.99,,,-99.99,,2013-02-22 18:53:00,
2013-02-22 13:58:00,38.3,-99.9,-100.00,North,-999,-999.0,-999.0,40,-99.99,,,-99.99,,2013-02-22 18:58:00,
2013-02-22 14:03:00,38.5,-99.9,-100.00,North,-999,-999.0,-999.0,40,-99.99,,,-99.99,,2013-02-22 19:03:00,
2013-02-22 14:08:00,38.5,-99.9,-100.00,North,-999,-999.0,-999.0,41,-99.99,,,-99.99,,2013-02-22 19:08:00,
2013-02-22 14:13:00,38.7,-99.9,-100.00,North,-999,-999.0,-999.0,40,-99.99,,,-99.99,,2013-02-22 19:13:00,
2013-02-22 14:18:00,38.5,-99.9,-100.00,North,-999,-999.0,-999.0,39,-99.99,,,-99.99,,2013-02-22 19:18:00,
2013-02-22 14:23:00,38.5,-99.9,-100.00,North,-999,-999.0,-999.0,41,-99.99,,,-99.99,,2013-02-22 19:23:00,
2013-02-22 14:28:00,38.1,-99.9,-100.00,North,-999,-999.0,-999.0,40,-99.99,,,-99.99,,2013-02-22 19:28:00,
2013-02-22 14:33:00,38.5,-99.9,-100.00,North,-999,-999.0,-999.0,41,-99.99,,,-99.99,,2013-02-22 19:33:00,
2013-02-22 14:38:00,38.8,-99.9,-100.00,North,-999,-999.0,-999.0,40,-99.99,,,-99.99,,2013-02-22 19:38:00,
2013-02-22 14:43:00,38.7,-99.9,-100.00,North,-999,-999.0,-999.0,39,-99.99,,,-99.99,,2013-02-22 19:43:00,
2013-02-22 14:48:00,38.1,-99.9,-100.00,North,-999,-999.0,-999.0,40,-99.99,,,-99.99,,2013-02-22 19:48:00,
2013-02-22 14:53:00,38.8,-99.9,-100.00,North,-999,-999.0,-999.0,39,-99.99,,,-99.99,,2013-02-22 19:53:00,
2013-02-22 14:58:00,39.0,-99.9,-100.00,North,-999,-999.0,-999.0,40,-99.99,,,-99.99,,2013-02-22 19:58:00,
2013-02-22 15:03:00,39.4,-99.9,-100.00,North,-999,-999.0,-999.0,38,-99.99,,,-99.99,,2013-02-22 20:03:00,
2013-02-22 15:08:00,39.0,-99.9,-100.00,North,-999,-999.0,-999.0,38,-99.99,,,-99.99,,2013-02-22 20:08:00,
2013-02-22 15:13:00,38.3,-99.9,-100.00,North,-999,-999.0,-999.0,40,-99.99,,,-99.99,,2013-02-22 20:13:00,
2013-02-22 15:18:00,38.1,-99.9,-100.00,North,-999,-999.0,-999.0,42,-99.99,,,-99.99,,2013-02-22 20:18:00,
2013-02-22 15:23:00,38.5,-99.9,-100.00,North,-999,-999.0,-999.0,41,-99.99,,,-99.99,,2013-02-22 20:23:00,
2013-02-22 15:28:00,38.5,-99.9,-100.00,North,-999,-999.0,-999.0,40,-99.99,,,-99.99,,2013-02-22 20:28:00,
2013-02-22 15:33:00,38.7,-99.9,-100.00,North,-999,-999.0,-999.0,40,-99.99,,,-99.99,,2013-02-22 20:33:00,
2013-02-22 15:38:00,38.8,-99.9,-100.00,North,-999,-999.0,-999.0,40,-99.99,,,-99.99,,2013-02-22 20:38:00,
2013-02-22 15:43:00,39.0,-99.9,-100.00,North,-999,-999.0,-999.0,40,-99.99,,,-99.99,,2013-02-22 20:43:00,
2013-02-22 15:48:00,39.0,-99.9,-100.00,North,-999,-999.0,-999.0,39,-99.99,,,-99.99,,2013-02-22 20:48:00,
2013-02-22 15:53:00,38.8,-99.9,-100.00,North,-999,-999.0,-999.0,39,-99.99,,,-99.99,,2013-02-22 20:53:00,
2013-02-22 15:58:00,38.5,-99.9,-100.00,North,-999,-999.0,-999.0,39,-99.99,,,-99.99,,2013-02-22 20:58:00,
2013-02-22 16:03:00,38.3,-99.9,-100.00,North,-999,-999.0,-999.0,40,-99.99,,,-99.99,,2013-02-22 21:03:00,
2013-02-22 16:08:00,37.8,-99.9,-100.00,North,-999,-999.0,-999.0,40,-99.99,,,-99.99,,2013-02-22 21:08:00,
2013-02-22 16:13:00,37.2,-99.9,-100.00,North,-999,-999.0,-999.0,41,-99.99,,,-99.99,,2013-02-22 21:13:00,
2013-02-22 16:18:00,36.9,-99.9,-100.00,North,-999,-999.0,-999.0,42,-99.99,,,-99.99,,2013-02-22 21:18:00,
2013-02-22 16:23:00,36.5,-99.9,-100.00,North,-999,-999.0,-999.0,43,-99.99,,,-99.99,,2013-02-22 21:23:00,
2013-02-22 16:28:00,36.5,-99.9,-100.00,North,-999,-999.0,-999.0,43,-99.99,,,-99.99,,2013-02-22 21:28:00,
2013-02-22 16:33:00,36.1,-99.9,-100.00,North,-999,-999.0,-999.0,44,-99.99,,,-99.99,,2013-02-22 21:33:00,
2013-02-22 16:38:00,36.1,-99.9,-100.00,North,-999,-999.0,-999.0,44,-99.99,,,-99.99,,2013-02-22 21:38:00,
2013-02-22 16:43:00,36.1,-99.9,-100.00,North,-999,-999.0,-999.0,44,-99.99,,,-99.99,,2013-02-22 21:43:00,
2013-02-22 16:49:00,36.1,-99.9,-100.00,North,-999,-999.0,-999.0,45,-99.99,,,-99.99,,2013-02-22 21:49:00,
2013-02-22 16:54:00,36.0,-99.9,-100.00,North,-999,-999.0,-999.0,45,-99.99,,,-99.99,,2013-02-22 21:54:00,
2013-02-22 16:59:00,35.8,-99.9,-100.00,North,-999,-999.0,-999.0,46,-99.99,,,-99.99,,2013-02-22 21:59:00,
2013-02-22 17:04:00,35.6,-99.9,-100.00,North,-999,-999.0,-999.0,46,-99.99,,,-99.99,,2013-02-22 22:04:00,
2013-02-22 17:09:00,35.4,-99.9,-100.00,North,-999,-999.0,-999.0,46,-99.99,,,-99.99,,2013-02-22 22:09:00,
2013-02-22 17:14:00,35.2,-99.9,-100.00,North,-999,-999.0,-999.0,48,-99.99,,,-99.99,,2013-02-22 22:14:00,
2013-02-22 17:19:00,34.9,-99.9,-100.00,North,-999,-999.0,-999.0,48,-99.99,,,-99.99,,2013-02-22 22:19:00,
2013-02-22 17:24:00,34.9,-99.9,-100.00,North,-999,-999.0,-999.0,49,-99.99,,,-99.99,,2013-02-22 22:24:00,
2013-02-22 17:29:00,34.5,-99.9,-100.00,North,-999,-999.0,-999.0,49,-99.99,,,-99.99,,2013-02-22 22:29:00,
2013-02-22 17:34:00,34.3,-99.9,-100.00,North,-999,-999.0,-999.0,50,-99.99,,,-99.99,,2013-02-22 22:34:00,
2013-02-22 17:39:00,34.2,-99.9,-100.00,North,-999,-999.0,-999.0,49,-99.99,,,-99.99,,2013-02-22 22:39:00,
2013-02-22 17:44:00,34.0,16.3,-100.00,North,-999,-999.0,-999.0,50,-99.99,,,-99.99,,2013-02-22 22:44:00,
2013-02-22 17:49:00,33.6,16.8,-100.00,North,-999,-999.0,-999.0,53,-99.99,,,-99.99,,2013-02-22 22:49:00,
2013-02-22 17:54:00,33.4,17.0,-100.00,North,-999,-999.0,-999.0,54,-99.99,,,-99.99,,2013-02-22 22:54:00,
2013-02-22 17:59:00,33.3,16.5,-100.00,North,-999,-999.0,-999.0,53,-99.99,,,-99.99,,2013-02-22 22:59:00,
2013-02-22 18:04:00,33.3,16.4,-100.00,North,-999,-999.0,-999.0,53,-99.99,,,-99.99,,2013-02-22 23:04:00,
2013-02-22 18:09:00,33.3,15.9,-100.00,North,-999,-999.0,-999.0,51,-99.99,,,-99.99,,2013-02-22 23:09:00,
2013-02-22 18:14:00,33.3,15.6,-100.00,North,-999,-999.0,-999.0,51,-99.99,,,-99.99,,2013-02-22 23:14:00,
2013-02-22 18:19:00,33.1,15.9,-100.00,North,-999,-999.0,-999.0,52,-99.99,,,-99.99,,2013-02-22 23:19:00,
2013-02-22 18:24:00,33.1,15.8,-100.00,North,-999,-999.0,-999.0,52,-99.99,,,-99.99,,2013-02-22 23:24:00,
2013-02-22 18:29:00,33.1,16.0,-100.00,North,-999,-999.0,-999.0,52,-99.99,,,-99.99,,2013-02-22 23:29:00,
2013-02-22 18:34:00,32.9,16.5,-100.00,North,-999,-999.0,-999.0,54,-99.99,,,-99.99,,2013-02-22 23:34:00,
2013-02-22 18:39:00,32.5,16.6,-100.00,North,-999,-999.0,-999.0,55,-99.99,,,-99.99,,2013-02-22 23:39:00,
2013-02-22 18:44:00,32.5,15.8,-100.00,North,-999,-999.0,-999.0,53,-99.99,,,-99.99,,2013-02-22 23:44:00,
2013-02-22 18:49:00,32.7,16.0,-100.00,North,-999,-999.0,-999.0,53,-99.99,,,-99.99,,2013-02-22 23:49:00,
2013-02-22 18:54:00,32.5,16.4,-100.00,North,-999,-999.0,-999.0,55,-99.99,,,-99.99,,2013-02-22 23:54:00,
2013-02-22 18:59:00,32.5,16.2,-100.00,North,-999,-999.0,-999.0,54,-99.99,,,-99.99,,2013-02-22 23:59:00,
2013-02-22 19:04:00,32.5,16.4,-100.00,North,-999,-999.0,-999.0,55,-99.99,,,-99.99,,2013-02-23 00:04:00,
2013-02-22 19:09:00,32.5,16.4,-100.00,North,-999,-999.0,-999.0,55,-99.99,,,-99.99,,2013-02-23 00:09:00,
2013-02-22 19:14:00,32.5,16.2,-100.00,North,-999,-999.0,-999.0,54,-99.99,,,-99.99,,2013-02-23 00:14:00,
2013-02-22 19:19:00,32.5,16.6,-100.00,North,-999,-999.0,-999.0,55,-99.99,,,-99.99,,2013-02-23 00:19:00,
2013-02-22 19:24:00,32.5,16.8,-100.00,North,-999,-999.0,-999.0,56,-99.99,,,-99.99,,2013-02-23 00:24:00,
2013-02-22 19:29:00,32.5,16.8,-100.00,North,-999,-999.0,-999.0,56,-99.99,,,-99.99,,2013-02-23 00:29:00,
2013-02-22 19:34:00,32.5,16.9,-100.00,North,-999,-999.0,-999.0,56,-99.99,,,-99.99,,2013-02-23 00:34:00,
2013-02-22 19:39:00,32.5,17.5,-100.00,North,-999,-999.0,-999.0,58,-99.99,,,-99.99,,2013-02-23 00:39:00,
2013-02-22 19:44:00,32.5,17.6,-100.00,North,-999,-999.0,-999.0,58,-99.99,,,-99.99,,2013-02-23 00:44:00,
2013-02-22 19:49:00,32.4,17.1,-100.00,North,-999,-999.0,-999.0,57,-99.99,,,-99.99,,2013-02-23 00:49:00,
2013-02-22 19:54:00,32.4,18.1,-100.00,North,-999,-999.0,-999.0,60,-99.99,,,-99.99,,2013-02-23 00:54:00,
2013-02-22 19:59:00,32.4,17.9,-100.00,North,-999,-999.0,-999.0,59,-99.99,,,-99.99,,2013-02-23 00:59:00,
2013-02-22 20:04:00,32.4,18.1,-100.00,North,-999,-999.0,-999.0,60,-99.99,,,-99.99,,2013-02-23 01:04:00,
2013-02-22 20:09:00,32.2,17.9,-100.00,North,-999,-999.0,-999.0,60,-99.99,,,-99.99,,2013-02-23 01:09:00,
2013-02-22 20:14:00,32.2,17.9,-100.00,North,-999,-999.0,-999.0,60,-99.99,,,-99.99,,2013-02-23 01:14:00,
2013-02-22 20:19:00,32.2,18.2,-100.00,North,-999,-999.0,-999.0,61,-99.99,,,-99.99,,2013-02-23 01:19:00,
2013-02-22 20:24:00,32.2,18.0,-100.00,North,-999,-999.0,-999.0,60,-99.99,,,-99.99,,2013-02-23 01:24:00,
2013-02-22 20:29:00,32.0,18.4,-100.00,North,-999,-999.0,-999.0,62,-99.99,,,-99.99,,2013-02-23 01:29:00,
2013-02-22 20:34:00,32.0,18.6,-100.00,North,-999,-999.0,-999.0,62,-99.99,,,-99.99,,2013-02-23 01:34:00,
2013-02-22 20:39:00,31.8,18.0,-100.00,North,-999,-999.0,-999.0,61,-99.99,,,-99.99,,2013-02-23 01:39:00,
2013-02-22 20:44:00,31.8,18.1,-100.00,North,-999,-999.0,-999.0,61,-99.99,,,-99.99,,2013-02-23 01:44:00,
2013-02-22 20:49:00,31.8,18.2,-100.00,North,-999,-999.0,-999.0,62,-99.99,,,-99.99,,2013-02-23 01:49:00,
2013-02-22 20:54:00,31.8,18.2,-100.00,North,-999,-999.0,-999.0,62,-99.99,,,-99.99,,2013-02-23 01:54:00,
2013-02-22 20:59:00,31.6,18.1,-100.00,North,-999,-999.0,-999.0,62,-99.99,,,-99.99,,2013-02-23 01:59:00,
2013-02-22 21:04:00,31.6,18.5,-100.00,North,-999,-999.0,-999.0,63,-99.99,,,-99.99,,2013-02-23 02:04:00,
2013-02-22 21:09:00,31.6,18.2,-100.00,North,-999,-999.0,-999.0,62,-99.99,,,-99.99,,2013-02-23 02:09:00,
2013-02-22 21:14:00,31.6,18.6,-100.00,North,-999,-999.0,-999.0,63,-99.99,,,-99.99,,2013-02-23 02:14:00,
2013-02-22 21:19:00,31.5,19.0,-100.00,North,-999,-999.0,-999.0,65,-99.99,,,-99.99,,2013-02-23 02:19:00,
2013-02-22 21:24:00,31.5,19.3,-100.00,North,-999,-999.0,-999.0,66,-99.99,,,-99.99,,2013-02-23 02:24:00,
2013-02-22 21:29:00,31.5,19.5,-100.00,North,-999,-999.0,-999.0,66,-99.99,,,-99.99,,2013-02-23 02:29:00,
2013-02-22 21:34:00,31.5,19.8,-100.00,North,-999,-999.0,-999.0,67,-99.99,,,-99.99,,2013-02-23 02:34:00,
2013-02-22 21:39:00,31.5,21.2,-100.00,North,-999,-999.0,-999.0,71,-99.99,,,-99.99,,2013-02-23 02:39:00,
2013-02-22 21:44:00,31.3,21.5,-100.00,North,-999,-999.0,-999.0,72,-99.99,,,-99.99,,2013-02-23 02:44:00,
2013-02-22 21:49:00,31.3,22.0,-100.00,North,-999,-999.0,-999.0,74,-99.99,,,-99.99,,2013-02-23 02:49:00,
2013-02-22 21:54:00,31.3,22.1,-100.00,North,-999,-999.0,-999.0,74,-99.99,,,-99.99,,2013-02-23 02:54:00,
2013-02-22 21:59:00,31.3,23.2,-100.00,North,-999,-999.0,-999.0,77,-99.99,,,-99.99,,2013-02-23 02:59:00,
2013-02-22 22:04:00,31.3,23.9,-100.00,North,-999,-999.0,-999.0,79,-99.99,,,-99.99,,2013-02-23 03:04:00,
2013-02-22 22:09:00,31.3,24.0,-100.00,North,-999,-999.0,-999.0,79,-99.99,,,-99.99,,2013-02-23 03:09:00,
2013-02-22 22:14:00,31.1,23.8,-100.00,North,-999,-999.0,-999.0,79,-99.99,,,-99.99,,2013-02-23 03:14:00,
2013-02-22 22:19:00,31.1,24.2,-100.00,North,-999,-999.0,-999.0,80,-99.99,,,-99.99,,2013-02-23 03:19:00,
2013-02-22 22:24:00,30.9,24.3,-100.00,North,-999,-999.0,-999.0,81,-99.99,,,-99.99,,2013-02-23 03:24:00,
2013-02-22 22:29:00,30.7,23.9,-100.00,North,-999,-999.0,-999.0,81,-99.99,,,-99.99,,2013-02-23 03:29:00,
2013-02-22 22:34:00,30.7,24.7,-100.00,North,-999,-999.0,-999.0,83,-99.99,,,-99.99,,2013-02-23 03:34:00,
2013-02-22 22:39:00,30.7,24.9,-100.00,North,-999,-999.0,-999.0,83,-99.99,,,-99.99,,2013-02-23 03:39:00,
2013-02-22 22:44:00,30.6,25.0,-100.00,North,-999,-999.0,-999.0,84,-99.99,,,-99.99,,2013-02-23 03:44:00,
2013-02-22 22:49:00,30.6,24.7,-100.00,North,-999,-999.0,-999.0,83,-99.99,,,-99.99,,2013-02-23 03:49:00,
2013-02-22 22:54:00,30.6,24.3,-100.00,North,-999,-999.0,-999.0,82,-99.99,,,-99.99,,2013-02-23 03:54:00,
2013-02-22 22:59:00,30.6,24.4,-100.00,North,-999,-999.0,-999.0,82,-99.99,,,-99.99,,2013-02-23 03:59:00,
2013-02-22 23:04:00,30.6,25.4,-100.00,North,-999,-999.0,-999.0,85,-99.99,,,-99.99,,2013-02-23 04:04:00,
2013-02-22 23:09:00,30.6,25.7,-100.00,North,-999,-999.0,-999.0,86,-99.99,,,-99.99,,2013-02-23 04:09:00,
2013-02-22 23:14:00,30.4,25.7,-100.00,North,-999,-999.0,-999.0,87,-99.99,,,-99.99,,2013-02-23 04:14:00,
2013-02-22 23:19:00,30.6,26.8,-100.00,North,-999,-999.0,-999.0,89,-99.99,,,-99.99,,2013-02-23 04:19:00,
2013-02-22 23:27:00,30.6,26.1,-100.00,North,-999,-999.0,-999.0,87,-99.99,,,-99.99,,2013-02-23 04:27:00,
2013-02-22 23:32:00,30.6,27.0,-100.00,North,-999,-999.0,-999.0,90,-99.99,,,-99.99,,2013-02-23 04:32:00,
2013-02-22 23:37:00,30.6,25.6,-100.00,North,-999,-999.0,-999.0,86,-99.99,,,-99.99,,2013-02-23 04:37:00,
2013-02-22 23:42:00,30.6,25.0,-100.00,North,-999,-999.0,-999.0,84,-99.99,,,-99.99,,2013-02-23 04:42:00,
2013-02-22 23:47:00,30.6,24.6,-100.00,North,-999,-999.0,-999.0,83,-99.99,,,-99.99,,2013-02-23 04:47:00,
2013-02-22 23:54:00,30.6,24.1,-100.00,North,-999,-999.0,-999.0,82,-99.99,,,-99.99,,2013-02-23 04:54:00,
2013-02-22 23:59:00,30.6,23.7,-100.00,North,-999,-999.0,-999.0,80,-99.99,,,-99.99,,2013-02-23 04:59:00,